1917 Tropical Cyclone NOT_NAMED (1917347S18163)


IBTrACS version v04r00. Visit IBTrACS website for data access.
Please direct all questions to the IBTrACS Q and A forum

Storm track - Intensity - Wind Radii - Intensity Data - Source Data - All data

Summary Information

Storm ID 1917347S18163
Start Dec 12 23Z
Landfall Dec 14 23Z, Dec 17 17Z
Max Intensity 35 kt (Dec 14 00Z), 996 mb (Dec 13 23Z)
End Dec 17 17Z
ATCF IDs
Track status Best track data.

Storm track plot

Map of storm track

Intensity plots

Map of storm track

Radial wind information

No radial wind information for this storm


Position and Intensity Table

BASIN ISO_TIME_________ NATURE LAT LON WMO PRES BOM PRES DS824 WIND DS824 PRES
degrees north degrees east mb mb kts mb
SP 1917-12-12 23:00:00 NR -17.80 163.00
SP 1917-12-13 00:00:00 NR -17.78 162.55
SP 03:00:00 NR -17.72 161.21
SP 06:00:00 NR -17.67 159.86
SP 09:00:00 NR -17.65 158.52
SP 12:00:00 NR -17.66 157.17
SP 15:00:00 NR -17.72 155.82
SP 18:00:00 TS -17.85 154.47
SP 19:00:00 TS -17.92 154.02
SP 21:00:00 TS -18.07 153.14
SP 23:00:00 TS -18.22 152.36 996 996
SP 1917-12-14 00:00:00 TS -18.29 152.04 35 996
SP 03:00:00 TS -18.52 151.32
SP 06:00:00 TS -18.77 150.90
SP 09:00:00 TS -19.07 150.64
SP 11:00:00 TS -19.29 150.49
SP 12:00:00 TS -19.38 150.38
SP 15:00:00 TS -19.70 149.90
SP 18:00:00 TS -20.08 149.47
SP 21:00:00 TS -20.57 149.12
SP 23:00:00 TS -20.98 148.96
SP 1917-12-15 00:00:00 TS -21.22 148.90
SP 02:00:00 TS -21.68 148.90
SP 03:00:00 TS -21.88 148.98
SP 06:00:00 TS -22.32 149.53
SP 09:00:00 TS -22.61 150.37
SP 10:00:00 TS -22.69 150.68
SP 12:00:00 TS -22.85 151.24
SP 15:00:00 TS -23.03 152.14
SP 18:00:00 TS -23.13 153.07
SP 21:00:00 TS -23.18 153.98
SP 23:00:00 TS -23.19 154.55
SP 1917-12-16 00:00:00 TS -23.21 154.81
SP 03:00:00 TS -23.24 155.51
SP 06:00:00 TS -23.25 156.12
SP 09:00:00 TS -23.23 156.67
SP 12:00:00 TS -23.18 157.18
SP 15:00:00 TS -23.11 157.67
SP 18:00:00 TS -23.01 158.17
SP 21:00:00 TS -22.88 158.67
SP 23:00:00 TS -22.78 159.05
SP 1917-12-17 00:00:00 TS -22.70 159.32
SP 03:00:00 NR -22.35 160.38
SP 06:00:00 NR -21.96 161.49
SP 09:00:00 NR -21.58 162.59
SP 12:00:00 NR -21.24 163.61
SP 15:00:00 NR -21.00 164.50
SP 17:00:00 NR -20.90 165.00

Source Information

Agency Information
USA
TOKYO
CMA
HKO
NEWDELHI
REUNION
BOM IDCKMSTM0S.csv:Line=285:unnamed
NADI
WELLINGTON
DS824 aus_area.dat:27:NOT NAMED
TD9636
TD9635
NEUMANN
MLC

All available IBTrACS Data

SEASON BASIN SUBBASIN ISO_TIME_________ NATURE LAT LON WMO PRES WMO AGENCY DIST2LAND LANDFALL IFLAG USA SSHS BOM LAT BOM LON BOM PRES BOM PRES_METHOD DS824 LAT DS824 LON DS824 STAGE DS824 WIND DS824 PRES STORM SPEED STORM DIR
Year degrees north degrees east mb km km 1 degrees north degrees east mb degrees north degrees east kts mb kts degrees
1918 SP MM 1917-12-12 23:00:00 NR -17.80 163.00 bom 292 292 ______O_______ -1 -17.80 163.00 26 273
1918 SP MM 1917-12-13 00:00:00 NR -17.78 162.55 311 311 ______P_______ -1 -17.78 162.55 26 273
1918 SP MM 03:00:00 NR -17.72 161.21 413 413 ______P_______ -1 -17.72 161.21 26 272
1918 SP EA 06:00:00 NR -17.67 159.86 519 519 ______P_______ -1 -17.67 159.86 26 272
1918 SP EA 09:00:00 NR -17.65 158.52 652 652 ______P_______ -1 -17.65 158.52 26 270
1918 SP EA 12:00:00 NR -17.66 157.17 771 755 ______P_______ -1 -17.66 157.17 26 268
1918 SP EA 15:00:00 NR -17.72 155.82 748 649 ______P_______ -1 -17.72 155.82 26 266
1918 SP EA 18:00:00 TS -17.85 154.47 640 615 ______P__O____ -1 -17.84 154.46 -17.90 154.50 TC 26 263
1918 SP EA 19:00:00 TS -17.92 154.02 bom 608 523 ______O__P____ -1 -17.90 154.00 -17.97 154.06 TC 26 260
1918 SP EA 21:00:00 TS -18.07 153.14 514 444 ______P__P____ -1 -18.04 153.10 -18.10 153.20 TC 24 259
1918 SP EA 23:00:00 TS -18.22 152.36 996 bom 444 412 ______O__P____ -1 -18.20 152.30 996 4 -18.23 152.43 TC 21 258
1918 SP EA 1917-12-14 00:00:00 TS -18.29 152.04 403 338 ______P__O____ -1 -18.28 151.98 -18.30 152.10 TC 35 996 16 253
1918 SP EA 03:00:00 TS -18.52 151.32 330 276 ______P__P____ -1 -18.52 151.28 -18.52 151.36 TC 12 246
1918 SP EA 06:00:00 TS -18.77 150.90 276 239 ______P__P____ -1 -18.78 150.89 -18.77 150.92 TC 8 229
1918 SP EA 09:00:00 TS -19.07 150.64 231 210 ______P__P____ -1 -19.08 150.65 -19.06 150.64 TC 8 217
1918 SP EA 11:00:00 TS -19.29 150.49 bom 210 195 ______O__P____ -1 -19.30 150.50 -19.28 150.48 TC 8 219
1918 SP EA 12:00:00 TS -19.38 150.38 195 133 ______P__O____ -1 -19.37 150.35 -19.40 150.40 TC 10 234
1918 SP EA 15:00:00 TS -19.70 149.90 133 76 ______P__P____ -1 -19.58 149.91 -19.82 149.90 TC 11 231
1918 SP EA 18:00:00 TS -20.08 149.47 76 20 ______P__P____ -1 -19.89 149.52 -20.28 149.42 TC 11 220
1918 SP EA 21:00:00 TS -20.57 149.12 23 11 ______P__P____ -1 -20.40 149.18 -20.75 149.06 TC 12 208
1918 SP EA 23:00:00 TS -20.98 148.96 bom 0 0 ______O__P____ -1 -20.90 149.00 -21.06 148.93 TC 14 198
1918 SP EA 1917-12-15 00:00:00 TS -21.22 148.90 0 0 ______P__O____ -1 -21.23 148.89 -21.20 148.90 TC 14 184
1918 SP EA 02:00:00 TS -21.68 148.90 bom 0 0 ______O__P____ -1 -21.90 148.80 -21.47 148.99 TC 13 173
1918 SP EA 03:00:00 TS -21.88 148.98 0 0 ______P__P____ -1 -22.16 148.87 -21.59 149.09 TC 13 137
1918 SP EA 06:00:00 TS -22.32 149.53 0 0 ______P__P____ -1 -22.68 149.53 -21.95 149.54 TC 15 120
1918 SP EA 09:00:00 TS -22.61 150.37 0 0 ______P__P____ -1 -22.95 150.54 -22.27 150.20 TC 17 109
1918 SP EA 10:00:00 TS -22.69 150.68 bom 0 0 ______O__P____ -1 -23.00 150.90 -22.37 150.45 TC 17 107
1918 SP EA 12:00:00 TS -22.85 151.24 40 40 ______P__P____ -1 -23.15 151.47 -22.55 151.01 TC 17 104
1918 SP EA 15:00:00 TS -23.03 152.14 126 122 ______P__P____ -1 -23.26 152.35 -22.79 151.94 TC 17 99
1918 SP EA 18:00:00 TS -23.13 153.07 173 173 ______P__P____ -1 -23.28 153.22 -22.98 152.91 TC 17 95
1918 SP EA 21:00:00 TS -23.18 153.98 192 192 ______P__P____ -1 -23.24 154.07 -23.11 153.89 TC 16 93
1918 SP EA 23:00:00 TS -23.19 154.55 bom 222 222 ______O__P____ -1 -23.20 154.60 -23.18 154.51 TC 15 92
1918 SP EA 1917-12-16 00:00:00 TS -23.21 154.81 234 234 ______P__O____ -1 -23.21 154.82 -23.20 154.80 TC 13 93
1918 SP EA 03:00:00 TS -23.24 155.51 286 286 ______P__P____ -1 -23.24 155.41 -23.24 155.61 TC 12 92
1918 SP EA 06:00:00 TS -23.25 156.12 335 335 ______P__P____ -1 -23.26 155.92 -23.24 156.32 TC 11 89
1918 SP EA 09:00:00 TS -23.23 156.67 388 388 ______P__P____ -1 -23.26 156.39 -23.20 156.95 TC 10 86
1918 SP EA 12:00:00 TS -23.18 157.18 434 434 ______P__P____ -1 -23.23 156.85 -23.14 157.51 TC 9 83
1918 SP EA 15:00:00 TS -23.11 157.67 485 485 ______P__P____ -1 -23.17 157.34 -23.05 158.01 TC 9 79
1918 SP EA 18:00:00 TS -23.01 158.17 536 536 ______P__P____ -1 -23.07 157.88 -22.94 158.46 TC 10 76
1918 SP EA 21:00:00 TS -22.88 158.67 587 587 ______P__P____ -1 -22.93 158.51 -22.82 158.89 TC 10 74
1918 SP EA 23:00:00 TS -22.78 159.05 bom 578 555 ______O__P____ -1 -22.80 159.00 -22.74 159.16 TC 13 73
1918 SP EA 1917-12-17 00:00:00 TS -22.70 159.32 555 449 ______P__O____ -1 -22.70 159.33 -22.70 159.30 TC 19 71
1918 SP MM 03:00:00 NR -22.35 160.38 440 329 ______P_______ -1 -22.35 160.38 TC 21 70
1918 SP MM 06:00:00 NR -21.96 161.49 321 213 ______P_______ -1 -21.96 161.49 TC 22 69
1918 SP MM 09:00:00 NR -21.58 162.59 205 100 ______P_______ -1 -21.58 162.59 TC 21 70
1918 SP MM 12:00:00 NR -21.24 163.61 94 15 ______P_______ -1 -21.24 163.61 TC 19 72
1918 SP MM 15:00:00 NR -21.00 164.50 bom 15 0 ______O_______ -1 -21.00 164.50 TC 16 75
1918 SP MM 17:00:00 NR -20.90 165.00 bom 0 ______O_______ -1 -20.90 165.00 TC 14 78